Time;durP1;ratioP1;P1;durP2;ratioP2;P2;SDS_P1;SDS_P2;PMS_P1;PMS_P2;Temp;Humidity;BMP_temperature;BMP_pressure;BME280_temperature;BME280_humidity;BME280_pressure;Samples;Min_cycle;Max_cycle;Signal;HPM_P1;HPM_P2
2023/08/03 00:00:37;;;;;;;0.10;0.10;;;20.00;99.90;;;;;;5004548;28;20190;-82
2023/08/03 00:03:04;;;;;;;0.10;0.10;;;20.00;99.90;;;;;;5005179;28;20831;-82
2023/08/03 00:05:30;;;;;;;0.10;0.10;;;20.00;99.90;;;;;;5004834;28;20214;-81
2023/08/03 00:07:55;;;;;;;0.10;0.10;;;20.00;99.90;;;;;;5005606;28;20206;-81
2023/08/03 00:10:21;;;;;;;0.10;0.10;;;20.00;99.90;;;;;;5019996;28;20202;-81
2023/08/03 00:12:47;;;;;;;0.10;0.10;;;19.90;99.90;;;;;;5019831;28;20272;-81
2023/08/03 00:15:15;;;;;;;0.10;0.10;;;19.90;99.90;;;;;;5003775;28;20681;-81
2023/08/03 00:17:40;;;;;;;0.10;0.10;;;19.90;99.90;;;;;;5003307;28;20559;-81
2023/08/03 00:20:08;;;;;;;0.10;0.10;;;19.90;99.90;;;;;;5020204;28;20578;-81
2023/08/03 00:22:34;;;;;;;0.73;0.73;;;19.90;99.90;;;;;;5020845;28;20405;-81
2023/08/03 00:25:00;;;;;;;0.10;0.10;;;19.90;99.90;;;;;;5020672;28;20268;-81
2023/08/03 00:27:27;;;;;;;0.10;0.10;;;19.80;99.90;;;;;;5004407;28;20640;-80
2023/08/03 00:29:52;;;;;;;0.10;0.10;;;19.80;99.90;;;;;;5004860;28;20197;-81
2023/08/03 00:32:18;;;;;;;0.10;0.10;;;19.80;99.90;;;;;;5003680;28;20199;-81
2023/08/03 00:34:44;;;;;;;0.10;0.10;;;19.70;99.90;;;;;;5003676;28;20219;-81
2023/08/03 00:37:13;;;;;;;0.10;0.10;;;19.80;99.90;;;;;;5004124;28;20186;-82
2023/08/03 00:39:39;;;;;;;0.10;0.10;;;19.70;99.90;;;;;;5020184;28;20183;-81
2023/08/03 00:42:05;;;;;;;0.10;0.10;;;19.70;99.90;;;;;;5005660;28;20659;-81
2023/08/03 00:44:31;;;;;;;0.10;0.10;;;19.70;99.90;;;;;;5020631;28;20691;-81
2023/08/03 00:46:57;;;;;;;0.10;0.10;;;19.70;99.90;;;;;;5003427;28;20592;-81
2023/08/03 00:49:27;;;;;;;0.10;0.10;;;19.70;99.90;;;;;;5003308;28;20194;-81
2023/08/03 00:51:59;;;;;;;0.10;0.10;;;19.60;99.90;;;;;;5005210;28;20171;-81
2023/08/03 00:54:25;;;;;;;0.10;0.10;;;19.60;99.90;;;;;;5019941;28;20206;-81
2023/08/03 00:56:51;;;;;;;0.10;0.10;;;19.60;99.90;;;;;;5003776;28;20219;-81
2023/08/03 00:59:16;;;;;;;0.10;0.10;;;19.60;99.90;;;;;;5003985;28;20190;-81
2023/08/03 01:01:42;;;;;;;0.10;0.10;;;19.60;99.90;;;;;;5003701;28;20202;-81
2023/08/03 01:04:08;;;;;;;0.10;0.10;;;19.60;99.90;;;;;;5004818;28;20215;-81
2023/08/03 01:06:33;;;;;;;0.10;0.10;;;19.60;99.90;;;;;;5003568;28;20187;-81
2023/08/03 01:09:00;;;;;;;0.10;0.10;;;19.60;99.90;;;;;;5004856;28;20209;-81
2023/08/03 01:11:27;;;;;;;0.10;0.10;;;19.60;99.90;;;;;;5004070;28;20245;-81
2023/08/03 01:13:53;;;;;;;0.10;0.10;;;19.50;99.90;;;;;;5004770;28;20233;-81
2023/08/03 01:16:19;;;;;;;0.10;0.10;;;19.60;99.90;;;;;;5001739;28;20218;-81
2023/08/03 01:18:45;;;;;;;0.10;0.10;;;19.50;99.90;;;;;;5003426;28;20614;-80
2023/08/03 01:21:11;;;;;;;0.10;0.10;;;19.50;99.90;;;;;;5005767;28;20190;-81
2023/08/03 01:23:37;;;;;;;0.10;0.10;;;19.60;99.90;;;;;;5004579;28;20628;-81
2023/08/03 01:26:02;;;;;;;0.10;0.10;;;19.50;99.90;;;;;;5002840;28;20199;-81
2023/08/03 01:28:28;;;;;;;0.10;0.10;;;19.50;99.90;;;;;;5003077;28;20262;-82
2023/08/03 01:30:53;;;;;;;0.10;0.10;;;19.40;99.90;;;;;;5019253;28;20274;-81
2023/08/03 01:33:19;;;;;;;0.10;0.10;;;19.40;99.90;;;;;;5004176;28;20556;-81
2023/08/03 01:35:45;;;;;;;0.10;0.10;;;19.40;99.90;;;;;;5004397;28;20239;-81
2023/08/03 01:38:13;;;;;;;0.10;0.10;;;19.30;99.90;;;;;;5004480;28;20194;-81
2023/08/03 01:40:39;;;;;;;0.10;0.10;;;19.30;99.90;;;;;;5004669;28;20187;-81
2023/08/03 01:43:05;;;;;;;0.10;0.10;;;19.20;99.90;;;;;;5019770;28;20191;-81
2023/08/03 01:45:30;;;;;;;0.10;0.10;;;19.20;99.90;;;;;;5004234;28;20293;-81
2023/08/03 01:47:56;;;;;;;0.10;0.10;;;19.20;99.90;;;;;;5003215;28;20316;-81
2023/08/03 01:50:21;;;;;;;0.10;0.10;;;19.20;99.90;;;;;;5004318;28;20552;-81
2023/08/03 01:52:48;;;;;;;0.10;0.10;;;19.20;99.90;;;;;;5003552;28;20683;-82
2023/08/03 01:55:14;;;;;;;0.10;0.10;;;19.20;99.90;;;;;;5004270;28;20816;-81
2023/08/03 01:57:39;;;;;;;0.10;0.10;;;19.10;99.90;;;;;;5019382;28;20202;-82
2023/08/03 02:00:05;;;;;;;0.10;0.10;;;19.10;99.90;;;;;;5020590;28;20183;-81
2023/08/03 02:02:31;;;;;;;0.10;0.10;;;19.10;99.90;;;;;;5004708;28;20289;-81
2023/08/03 02:04:57;;;;;;;0.10;0.10;;;19.10;99.90;;;;;;5008041;28;20332;-82
2023/08/03 02:07:53;;;;;;;0.10;0.10;;;19.10;99.90;;;;;;5005517;28;20200;-81
2023/08/03 02:10:21;;;;;;;0.10;0.10;;;19.00;99.90;;;;;;5005751;28;20191;-82
2023/08/03 02:12:47;;;;;;;0.10;0.10;;;19.00;99.90;;;;;;5006287;28;20215;-82
2023/08/03 02:15:13;;;;;;;0.10;0.10;;;19.00;99.90;;;;;;5003953;28;20313;-82
2023/08/03 02:17:39;;;;;;;0.10;0.10;;;18.70;99.90;;;;;;5007114;28;20187;-82
2023/08/03 02:20:06;;;;;;;0.10;0.10;;;18.60;99.90;;;;;;5008984;28;20190;-82
2023/08/03 02:22:31;;;;;;;0.10;0.10;;;18.40;99.90;;;;;;5010455;28;20222;-81
2023/08/03 02:24:56;;;;;;;0.10;0.10;;;18.30;99.90;;;;;;5008865;28;20240;-82
2023/08/03 02:27:22;;;;;;;0.10;0.10;;;18.20;99.90;;;;;;5008770;28;20191;-82
2023/08/03 02:29:47;;;;;;;0.10;0.10;;;18.10;99.90;;;;;;5009383;28;20184;-82
2023/08/03 02:32:13;;;;;;;0.10;0.10;;;18.10;99.90;;;;;;5011071;28;20237;-82
2023/08/03 02:34:38;;;;;;;0.10;0.10;;;18.00;99.90;;;;;;5009383;28;20202;-82
2023/08/03 02:37:04;;;;;;;0.10;0.10;;;17.90;99.90;;;;;;5026654;28;20194;-82
2023/08/03 02:39:29;;;;;;;0.10;0.10;;;17.90;99.90;;;;;;5008999;28;20240;-83
2023/08/03 02:41:55;;;;;;;0.10;0.10;;;17.90;99.90;;;;;;5008637;28;20179;-81
2023/08/03 02:44:21;;;;;;;0.10;0.10;;;17.90;99.90;;;;;;5007687;28;21376;-81
2023/08/03 02:46:48;;;;;;;0.10;0.10;;;17.90;99.90;;;;;;5006760;28;20191;-81
2023/08/03 02:49:13;;;;;;;0.10;0.10;;;17.80;99.90;;;;;;5006079;28;20193;-81
2023/08/03 02:51:39;;;;;;;0.10;0.10;;;17.80;99.90;;;;;;5006628;28;20578;-81
2023/08/03 02:54:04;;;;;;;0.10;0.10;;;17.80;99.90;;;;;;5007376;28;20218;-81
2023/08/03 02:56:30;;;;;;;0.10;0.10;;;17.70;99.90;;;;;;5006202;28;20222;-81
2023/08/03 02:58:55;;;;;;;0.10;0.10;;;17.70;99.90;;;;;;5008070;28;20190;-81
2023/08/03 03:01:21;;;;;;;0.10;0.10;;;17.50;99.90;;;;;;5006266;28;20214;-81
2023/08/03 03:03:47;;;;;;;0.10;0.10;;;17.50;99.90;;;;;;5007665;28;20198;-81
2023/08/03 03:06:12;;;;;;;0.10;0.10;;;17.50;99.90;;;;;;5006009;28;20353;-81
2023/08/03 03:08:38;;;;;;;0.10;0.10;;;17.50;99.90;;;;;;5006362;28;20187;-81
2023/08/03 03:11:03;;;;;;;0.10;0.10;;;17.40;99.90;;;;;;5005232;28;20344;-81
2023/08/03 03:13:29;;;;;;;0.10;0.10;;;17.40;99.90;;;;;;5007793;28;20234;-81
2023/08/03 03:15:54;;;;;;;0.10;0.10;;;17.40;99.90;;;;;;5005715;28;21253;-81
2023/08/03 03:18:20;;;;;;;0.10;0.10;;;17.40;99.90;;;;;;5021801;28;20582;-81
2023/08/03 03:20:45;;;;;;;0.10;0.10;;;17.40;99.90;;;;;;5006412;28;20254;-81
2023/08/03 03:23:11;;;;;;;0.10;0.10;;;17.30;99.90;;;;;;5006410;28;20198;-81
2023/08/03 03:25:36;;;;;;;0.10;0.10;;;17.30;99.90;;;;;;5006860;28;20691;-81
2023/08/03 03:28:04;;;;;;;0.10;0.10;;;17.30;99.90;;;;;;5006876;28;20319;-81
2023/08/03 03:30:33;;;;;;;0.10;0.10;;;17.30;99.90;;;;;;5006410;28;20183;-81
2023/08/03 03:32:59;;;;;;;0.10;0.10;;;17.30;99.90;;;;;;5005576;28;20722;-81
2023/08/03 03:35:24;;;;;;;0.10;0.10;;;17.20;99.90;;;;;;5020874;28;20260;-81
2023/08/03 03:37:50;;;;;;;0.10;0.10;;;17.20;99.90;;;;;;5007078;28;20187;-81
2023/08/03 03:40:15;;;;;;;0.10;0.10;;;17.20;99.90;;;;;;5005288;28;20648;-81
2023/08/03 03:42:41;;;;;;;0.10;0.10;;;17.20;99.90;;;;;;5005878;28;20175;-81
2023/08/03 03:45:07;;;;;;;0.10;0.10;;;17.20;99.90;;;;;;5006988;28;20207;-81
2023/08/03 03:47:33;;;;;;;0.10;0.10;;;17.10;99.90;;;;;;5020837;28;20195;-80
2023/08/03 03:49:58;;;;;;;0.10;0.10;;;17.20;99.90;;;;;;5005674;28;20205;-81
2023/08/03 03:52:24;;;;;;;0.10;0.10;;;17.20;99.90;;;;;;5005882;28;20550;-81
2023/08/03 03:54:49;;;;;;;0.10;0.10;;;17.20;99.90;;;;;;5005707;28;20719;-81
2023/08/03 03:57:15;;;;;;;0.10;0.10;;;17.20;99.90;;;;;;5005885;28;20191;-81
2023/08/03 03:59:40;;;;;;;0.10;0.10;;;17.10;99.90;;;;;;5005486;28;20543;-80
2023/08/03 04:02:06;;;;;;;0.10;0.10;;;17.10;99.90;;;;;;5006437;28;20186;-80
2023/08/03 04:04:31;;;;;;;0.10;0.10;;;17.00;99.90;;;;;;5006230;28;20676;-80
2023/08/03 04:06:57;;;;;;;0.10;0.10;;;17.00;99.90;;;;;;5005739;28;20688;-80
2023/08/03 04:09:22;;;;;;;0.10;0.10;;;17.00;99.90;;;;;;5005410;28;20282;-80
2023/08/03 04:11:48;;;;;;;0.10;0.10;;;17.10;99.90;;;;;;5005775;28;20557;-81
2023/08/03 04:14:14;;;;;;;0.10;0.10;;;17.10;99.90;;;;;;5007030;28;20241;-81
2023/08/03 04:16:39;;;;;;;0.10;0.10;;;17.10;99.90;;;;;;5005749;28;20276;-80
2023/08/03 04:19:05;;;;;;;0.10;0.10;;;17.10;99.90;;;;;;5005721;28;20183;-80
2023/08/03 04:21:30;;;;;;;0.10;0.10;;;17.10;99.90;;;;;;5004734;28;20183;-80
2023/08/03 04:23:56;;;;;;;0.10;0.10;;;17.10;99.90;;;;;;5004579;28;20249;-80
2023/08/03 04:26:21;;;;;;;0.10;0.10;;;17.10;99.90;;;;;;5004748;28;20233;-80
2023/08/03 04:28:47;;;;;;;0.10;0.10;;;17.10;99.90;;;;;;5003764;28;20179;-80
2023/08/03 04:31:12;;;;;;;0.10;0.10;;;17.10;99.90;;;;;;5003814;28;20711;-80
2023/08/03 04:33:38;;;;;;;0.10;0.10;;;17.10;99.90;;;;;;5004602;28;20216;-80
2023/08/03 04:36:03;;;;;;;0.10;0.10;;;17.10;99.90;;;;;;5004647;28;20215;-80
2023/08/03 04:38:29;;;;;;;0.10;0.10;;;17.20;99.90;;;;;;5005575;28;20183;-81
2023/08/03 04:40:54;;;;;;;0.10;0.10;;;17.20;99.90;;;;;;5004329;28;20266;-81
2023/08/03 04:43:20;;;;;;;0.10;0.10;;;17.20;99.90;;;;;;5002945;28;20687;-81
2023/08/03 04:45:45;;;;;;;0.10;0.10;;;17.20;99.90;;;;;;5004242;28;20556;-81
2023/08/03 04:48:11;;;;;;;0.10;0.10;;;17.20;99.90;;;;;;5001862;28;20238;-83
2023/08/03 04:50:37;;;;;;;0.10;0.10;;;17.20;99.90;;;;;;5003536;28;20293;-80
2023/08/03 04:53:03;;;;;;;0.10;0.10;;;17.20;99.90;;;;;;5000605;28;20283;-80
2023/08/03 04:55:28;;;;;;;0.10;0.10;;;17.10;99.90;;;;;;5005587;28;20309;-80
2023/08/03 04:57:56;;;;;;;0.10;0.10;;;17.10;99.90;;;;;;5005950;28;20807;-80
2023/08/03 05:00:21;;;;;;;0.10;0.10;;;17.10;99.90;;;;;;5005337;28;20233;-80
2023/08/03 05:02:47;;;;;;;0.10;0.10;;;17.10;99.90;;;;;;5005189;28;20279;-80
2023/08/03 05:05:12;;;;;;;0.10;0.10;;;17.10;99.90;;;;;;5003875;28;20784;-80
2023/08/03 05:07:38;;;;;;;0.10;0.10;;;17.20;99.90;;;;;;5004255;28;20195;-80
2023/08/03 05:10:04;;;;;;;0.10;0.10;;;17.20;99.90;;;;;;5019506;28;20194;-80
2023/08/03 05:12:29;;;;;;;0.10;0.10;;;17.20;99.90;;;;;;5003076;28;20191;-83
2023/08/03 05:14:55;;;;;;;0.10;0.10;;;17.30;99.90;;;;;;5004604;28;20302;-84
2023/08/03 05:17:20;;;;;;;0.10;0.10;;;17.30;99.90;;;;;;5002220;28;20183;-82
2023/08/03 05:19:47;;;;;;;0.10;0.10;;;17.30;99.90;;;;;;5003842;28;20226;-81
2023/08/03 05:22:12;;;;;;;0.10;0.10;;;17.50;99.90;;;;;;5005950;28;20194;-81
2023/08/03 05:24:37;;;;;;;0.10;0.10;;;17.50;99.90;;;;;;5004743;28;20615;-82
2023/08/03 05:27:03;;;;;;;0.10;0.10;;;17.50;99.90;;;;;;5004291;28;20443;-82
2023/08/03 05:29:29;;;;;;;0.10;0.10;;;17.60;99.90;;;;;;5003818;28;20827;-80
2023/08/03 05:31:54;;;;;;;0.10;0.10;;;17.70;99.90;;;;;;5003443;28;20205;-81
2023/08/03 05:34:20;;;;;;;0.10;0.10;;;17.70;99.90;;;;;;5003625;28;20714;-82
2023/08/03 05:36:45;;;;;;;0.10;0.10;;;17.70;99.90;;;;;;5001235;28;20202;-82
2023/08/03 05:39:11;;;;;;;0.10;0.10;;;17.70;99.90;;;;;;5001197;28;21651;-81
2023/08/03 05:41:36;;;;;;;0.10;0.10;;;17.70;99.90;;;;;;5001832;28;20187;-82
2023/08/03 05:44:02;;;;;;;0.10;0.10;;;17.70;99.90;;;;;;5002005;28;20203;-82
2023/08/03 05:46:32;;;;;;;0.10;0.10;;;17.70;99.90;;;;;;5002311;28;20187;-82
2023/08/03 05:48:58;;;;;;;0.10;0.10;;;17.80;99.90;;;;;;5002176;28;20179;-81
2023/08/03 05:51:25;;;;;;;0.10;0.10;;;17.80;99.90;;;;;;5021670;28;20691;-81
2023/08/03 05:53:52;;;;;;;0.10;0.10;;;17.70;99.90;;;;;;5019942;28;20221;-81
2023/08/03 05:56:20;;;;;;;0.10;0.10;;;17.70;99.90;;;;;;5006368;28;20214;-82
2023/08/03 05:58:45;;;;;;;0.10;0.10;;;17.70;99.90;;;;;;5004743;28;20220;-82
2023/08/03 06:01:12;;;;;;;0.10;0.10;;;17.80;99.90;;;;;;5005978;28;20182;-81
2023/08/03 06:03:46;;;;;;;0.10;0.10;;;17.80;99.90;;;;;;5004996;28;20198;-82
2023/08/03 06:06:15;;;;;;;0.10;0.10;;;17.70;99.90;;;;;;5005140;28;20186;-81
2023/08/03 06:08:49;;;;;;;0.10;0.10;;;17.70;99.90;;;;;;5019573;28;20198;-82
2023/08/03 06:11:17;;;;;;;0.10;0.10;;;17.70;99.90;;;;;;5002646;28;20198;-81
2023/08/03 06:13:43;;;;;;;0.10;0.10;;;17.80;99.90;;;;;;5002929;28;20217;-81
2023/08/03 06:16:11;;;;;;;0.10;0.10;;;17.80;99.90;;;;;;5002730;28;20215;-81
2023/08/03 06:18:54;;;;;;;0.10;0.10;;;17.80;99.90;;;;;;5003005;28;20240;-80
2023/08/03 06:21:22;;;;;;;0.10;0.10;;;17.80;99.90;;;;;;5019395;28;20813;-84
2023/08/03 06:23:49;;;;;;;0.10;0.10;;;17.90;99.90;;;;;;5017652;28;20864;-82
2023/08/03 06:26:17;;;;;;;0.10;0.10;;;17.90;99.90;;;;;;5018508;28;20187;-82
2023/08/03 06:28:44;;;;;;;0.10;0.10;;;17.90;99.90;;;;;;5018414;28;20191;-83
2023/08/03 06:31:12;;;;;;;0.10;0.10;;;18.00;99.90;;;;;;5016098;28;20225;-85
2023/08/03 06:33:38;;;;;;;0.10;0.10;;;17.90;99.90;;;;;;5002753;28;20214;-83
2023/08/03 06:36:05;;;;;;;0.10;0.10;;;18.00;99.90;;;;;;5002101;28;20203;-83
2023/08/03 06:38:32;;;;;;;0.10;0.10;;;18.00;99.90;;;;;;5017838;28;20278;-82
2023/08/03 06:40:58;;;;;;;0.10;0.10;;;18.00;99.90;;;;;;5002067;28;20181;-83
2023/08/03 06:43:23;;;;;;;0.10;0.10;;;18.00;99.90;;;;;;5002234;28;20679;-83
2023/08/03 06:45:49;;;;;;;0.10;0.10;;;18.00;99.90;;;;;;5004068;28;20189;-83
2023/08/03 06:48:15;;;;;;;0.10;0.10;;;18.00;99.90;;;;;;5019316;28;20195;-83
2023/08/03 06:50:41;;;;;;;0.10;0.10;;;18.00;99.90;;;;;;5002170;28;20195;-83
2023/08/03 06:53:07;;;;;;;0.10;0.10;;;18.00;99.90;;;;;;5001793;28;20198;-83
2023/08/03 06:55:33;;;;;;;0.10;0.10;;;18.00;99.90;;;;;;5003887;28;22160;-83
2023/08/03 06:57:58;;;;;;;0.10;0.10;;;18.00;99.90;;;;;;5003874;28;20927;-83
2023/08/03 07:00:24;;;;;;;0.10;0.10;;;18.00;99.90;;;;;;5005203;28;20676;-82
2023/08/03 07:02:50;;;;;;;0.10;0.10;;;18.00;99.90;;;;;;5005039;28;20179;-83
2023/08/03 07:05:15;;;;;;;0.10;0.10;;;18.10;99.90;;;;;;5007506;28;20226;-83
2023/08/03 07:07:41;;;;;;;0.10;0.10;;;18.10;99.90;;;;;;5007794;28;20682;-83
2023/08/03 07:10:07;;;;;;;0.10;0.10;;;18.10;99.90;;;;;;5023818;28;20994;-83
2023/08/03 07:12:36;;;;;;;0.10;0.10;;;18.10;99.90;;;;;;5007240;28;20187;-82
2023/08/03 07:15:03;;;;;;;0.10;0.10;;;18.10;99.90;;;;;;5009000;28;20203;-81
2023/08/03 07:17:29;;;;;;;0.10;0.10;;;18.20;99.90;;;;;;5022911;28;20872;-81
2023/08/03 07:19:54;;;;;;;0.10;0.10;;;18.10;99.90;;;;;;5008093;28;20191;-81
2023/08/03 07:22:24;;;;;;;0.10;0.10;;;18.20;99.90;;;;;;5006369;28;20191;-81
2023/08/03 07:24:50;;;;;;;0.10;0.10;;;18.20;99.90;;;;;;5005941;28;21039;-81
2023/08/03 07:27:16;;;;;;;0.10;0.10;;;18.20;99.90;;;;;;5020069;28;20254;-81
2023/08/03 07:29:43;;;;;;;0.10;0.10;;;18.10;99.90;;;;;;5005573;28;20179;-80
2023/08/03 07:32:11;;;;;;;0.00;0.00;;;18.20;99.90;;;;;;5006297;28;20187;-81
2023/08/03 07:34:36;;;;;;;0.10;0.10;;;18.20;99.90;;;;;;5020950;28;20203;-81
2023/08/03 07:37:02;;;;;;;0.10;0.10;;;18.30;99.90;;;;;;5006258;28;20737;-81
2023/08/03 07:39:28;;;;;;;0.10;0.10;;;18.60;99.90;;;;;;5008248;28;20179;-81
2023/08/03 07:41:53;;;;;;;0.10;0.10;;;18.70;99.90;;;;;;5009649;28;20186;-81
2023/08/03 07:44:19;;;;;;;0.10;0.10;;;18.90;99.90;;;;;;5025179;28;20230;-80
2023/08/03 07:46:46;;;;;;;0.10;0.10;;;18.90;99.90;;;;;;5007719;28;20191;-81
2023/08/03 07:49:12;;;;;;;0.10;0.10;;;18.80;99.90;;;;;;5013634;28;20202;-81
2023/08/03 07:51:38;;;;;;;0.10;0.10;;;18.90;99.90;;;;;;5011422;28;20198;-81
2023/08/03 07:54:04;;;;;;;0.10;0.10;;;19.00;99.90;;;;;;5014034;28;20203;-81
2023/08/03 07:56:30;;;;;;;0.10;0.10;;;19.00;99.90;;;;;;5014223;28;20199;-81
2023/08/03 07:58:56;;;;;;;0.10;0.10;;;19.10;99.90;;;;;;5015174;28;20250;-81
2023/08/03 08:01:22;;;;;;;0.10;0.10;;;19.20;99.90;;;;;;5015737;28;20264;-81
2023/08/03 08:03:49;;;;;;;0.10;0.10;;;19.30;99.90;;;;;;5029874;28;20203;-81
2023/08/03 08:06:16;;;;;;;0.10;0.10;;;19.30;99.90;;;;;;5014510;28;20194;-81
2023/08/03 08:08:42;;;;;;;0.10;0.10;;;19.40;99.90;;;;;;5013831;28;20187;-81
2023/08/03 08:11:08;;;;;;;0.10;0.10;;;19.30;99.90;;;;;;5010597;28;20248;-82
2023/08/03 08:13:34;;;;;;;0.10;0.10;;;19.20;99.90;;;;;;5008521;28;20282;-83
2023/08/03 08:16:01;;;;;;;0.10;0.10;;;19.20;99.90;;;;;;5022549;28;20289;-82
2023/08/03 08:18:27;;;;;;;0.10;0.10;;;19.40;99.90;;;;;;5007153;28;21106;-82
2023/08/03 08:21:04;;;;;;;0.10;0.10;;;19.30;99.90;;;;;;5009966;28;20191;-80
2023/08/03 08:23:30;;;;;;;0.10;0.10;;;19.50;99.90;;;;;;5008220;28;20172;-80
2023/08/03 08:25:56;;;;;;;0.10;0.10;;;19.70;99.90;;;;;;5010914;28;20589;-81
2023/08/03 08:28:22;;;;;;;0.10;0.10;;;20.00;99.90;;;;;;5012246;28;20179;-80
2023/08/03 08:30:48;;;;;;;0.10;0.10;;;20.20;99.90;;;;;;5011501;28;20683;-80
2023/08/03 08:33:15;;;;;;;0.10;0.10;;;20.10;99.90;;;;;;5009049;28;20300;-82
2023/08/03 08:35:41;;;;;;;0.10;0.10;;;20.10;99.90;;;;;;5003088;28;20227;-84
2023/08/03 08:38:09;;;;;;;0.10;0.10;;;20.30;99.90;;;;;;5002944;28;20195;-83
2023/08/03 08:40:36;;;;;;;0.10;0.10;;;20.50;99.90;;;;;;5003245;28;20189;-83
2023/08/03 08:43:02;;;;;;;0.10;0.10;;;20.50;99.90;;;;;;5004681;28;20199;-83
2023/08/03 08:45:30;;;;;;;0.10;0.10;;;20.70;99.90;;;;;;5003465;28;20237;-83
2023/08/03 08:47:55;;;;;;;0.10;0.10;;;20.40;99.90;;;;;;5004789;28;20191;-83
2023/08/03 08:50:21;;;;;;;0.10;0.10;;;20.40;99.90;;;;;;5002130;28;20211;-83
2023/08/03 08:52:47;;;;;;;0.10;0.10;;;20.40;99.90;;;;;;5003718;28;20253;-83
2023/08/03 08:55:20;;;;;;;0.10;0.10;;;20.30;99.90;;;;;;5006509;28;20226;-84
2023/08/03 08:57:45;;;;;;;0.10;0.10;;;20.30;99.90;;;;;;5010314;28;20255;-80
2023/08/03 09:00:12;;;;;;;0.10;0.10;;;20.40;99.90;;;;;;5020593;28;20305;-79
2023/08/03 09:02:38;;;;;;;0.10;0.10;;;20.20;99.90;;;;;;5005256;28;20199;-79
2023/08/03 09:05:12;;;;;;;0.10;0.10;;;20.10;99.90;;;;;;5022265;28;20209;-80
2023/08/03 09:07:38;;;;;;;0.10;0.10;;;20.10;99.90;;;;;;5021565;28;20185;-80
2023/08/03 09:10:04;;;;;;;0.10;0.10;;;20.00;99.90;;;;;;5005814;28;20216;-79
2023/08/03 09:12:29;;;;;;;0.10;0.10;;;20.10;99.90;;;;;;5005020;28;20193;-80
2023/08/03 09:14:55;;;;;;;0.10;0.10;;;20.20;99.90;;;;;;5003402;28;20216;-80
2023/08/03 09:17:25;;;;;;;0.10;0.10;;;20.20;99.90;;;;;;5005419;28;20308;-80
2023/08/03 09:19:54;;;;;;;0.10;0.10;;;20.20;99.90;;;;;;5004161;28;20186;-80
2023/08/03 09:22:24;;;;;;;0.10;0.10;;;20.20;99.90;;;;;;5004086;28;20197;-80
2023/08/03 09:25:07;;;;;;;0.10;0.10;;;20.20;99.90;;;;;;5004397;28;20206;-80
2023/08/03 09:27:33;;;;;;;0.10;0.10;;;20.20;99.90;;;;;;5003430;28;20193;-80
2023/08/03 09:30:04;;;;;;;0.10;0.10;;;20.20;99.90;;;;;;5002989;28;20315;-80
2023/08/03 09:32:34;;;;;;;0.10;0.10;;;20.30;99.90;;;;;;5001735;28;20214;-80
2023/08/03 09:35:01;;;;;;;0.10;0.10;;;20.40;99.90;;;;;;5003776;28;20747;-80
2023/08/03 09:37:36;;;;;;;0.10;0.10;;;20.40;99.90;;;;;;5004863;28;21284;-81
2023/08/03 09:40:05;;;;;;;0.10;0.10;;;20.50;99.90;;;;;;5004642;28;20186;-80
2023/08/03 09:42:31;;;;;;;0.10;0.10;;;20.50;99.90;;;;;;5003809;28;20182;-80
2023/08/03 09:45:01;;;;;;;0.10;0.10;;;20.50;99.90;;;;;;5003464;28;20198;-80
2023/08/03 09:47:27;;;;;;;0.10;0.10;;;20.50;99.90;;;;;;5001832;28;20186;-80
2023/08/03 09:49:53;;;;;;;0.10;0.10;;;20.70;99.90;;;;;;5001931;28;20203;-80
2023/08/03 09:52:26;;;;;;;0.10;0.10;;;20.60;99.90;;;;;;5003222;28;20720;-81
2023/08/03 09:55:05;;;;;;;0.10;0.10;;;20.70;99.90;;;;;;5001231;28;21248;-81
2023/08/03 09:57:35;;;;;;;0.10;0.10;;;20.70;99.90;;;;;;5003693;28;20549;-80
2023/08/03 10:00:06;;;;;;;0.10;0.10;;;20.70;99.90;;;;;;5002570;28;20269;-80
2023/08/03 10:02:39;;;;;;;0.10;0.10;;;20.80;99.90;;;;;;5001415;28;20175;-80
2023/08/03 10:05:08;;;;;;;0.10;0.10;;;20.80;99.90;;;;;;5018845;28;20293;-80
2023/08/03 10:07:42;;;;;;;0.10;0.10;;;20.70;99.90;;;;;;5007540;28;20180;-80
2023/08/03 10:10:13;;;;;;;0.10;0.10;;;20.70;99.90;;;;;;5030066;28;20178;-80
2023/08/03 10:12:43;;;;;;;0.10;0.10;;;20.50;99.90;;;;;;5029315;28;20243;-81
2023/08/03 10:15:10;;;;;;;0.10;0.10;;;20.60;99.90;;;;;;5027426;28;20771;-80
2023/08/03 10:17:37;;;;;;;0.10;0.10;;;20.60;99.90;;;;;;5011862;28;20179;-80
2023/08/03 10:20:04;;;;;;;0.10;0.10;;;20.70;99.90;;;;;;5012754;28;20183;-81
2023/08/03 10:22:30;;;;;;;0.10;0.10;;;20.70;99.90;;;;;;5012769;28;20179;-80
2023/08/03 10:25:18;;;;;;;0.10;0.10;;;20.60;99.90;;;;;;5009387;28;20699;-80
2023/08/03 10:28:13;;;;;;;0.10;0.10;;;20.60;99.90;;;;;;5010821;28;20704;-80
2023/08/03 10:31:01;;;;;;;0.10;0.10;;;20.60;99.90;;;;;;5023706;28;20293;-80
2023/08/03 10:33:51;;;;;;;0.10;0.10;;;20.60;99.90;;;;;;5012245;28;20183;-81
2023/08/03 10:36:28;;;;;;;0.10;0.10;;;20.50;99.90;;;;;;5008798;28;20222;-80
2023/08/03 10:39:04;;;;;;;0.10;0.10;;;20.40;99.90;;;;;;5024553;28;20189;-81
2023/08/03 10:41:36;;;;;;;0.10;0.10;;;20.30;99.90;;;;;;5013600;28;20179;-80
2023/08/03 10:44:09;;;;;;;0.10;0.10;;;20.40;99.90;;;;;;5015040;28;20628;-80
2023/08/03 10:46:42;;;;;;;0.10;0.10;;;20.70;99.90;;;;;;5028929;28;20526;-80
2023/08/03 10:49:28;;;;;;;0.10;0.10;;;21.20;99.90;;;;;;5014683;28;20206;-81
2023/08/03 10:52:15;;;;;;;0.10;0.10;;;21.40;99.90;;;;;;5001660;28;20199;-81
2023/08/03 10:54:40;;;;;;;0.10;0.10;;;21.40;99.90;;;;;;5022767;28;20206;-81
2023/08/03 10:57:14;;;;;;;0.10;0.10;;;21.50;99.90;;;;;;5007107;28;20326;-81
2023/08/03 10:59:46;;;;;;;0.10;0.10;;;21.30;99.90;;;;;;5022688;28;20179;-81
2023/08/03 11:02:25;;;;;;;0.10;0.10;;;21.40;99.90;;;;;;5006406;28;20656;-80
2023/08/03 11:04:53;;;;;;;0.10;0.10;;;21.10;99.90;;;;;;5008510;28;20199;-81
2023/08/03 11:07:28;;;;;;;0.10;0.10;;;21.00;99.90;;;;;;5004500;28;20182;-81
2023/08/03 11:09:54;;;;;;;0.10;0.10;;;20.90;99.90;;;;;;5007049;28;20179;-81
2023/08/03 11:12:25;;;;;;;0.10;0.10;;;21.00;99.90;;;;;;5022907;28;20175;-81
2023/08/03 11:14:52;;;;;;;0.10;0.10;;;20.90;99.90;;;;;;5006035;28;20290;-81
2023/08/03 11:17:22;;;;;;;0.10;0.10;;;20.80;99.90;;;;;;5005728;28;20815;-80
2023/08/03 11:19:48;;;;;;;0.10;0.10;;;20.80;99.90;;;;;;5005957;28;20179;-80
2023/08/03 11:22:13;;;;;;;0.57;0.57;;;20.90;99.90;;;;;;5005107;28;20535;-80
2023/08/03 11:24:40;;;;;;;0.10;0.10;;;20.90;99.90;;;;;;5003894;28;20198;-81
2023/08/03 11:27:06;;;;;;;0.10;0.10;;;20.80;99.90;;;;;;5004928;28;20187;-81
2023/08/03 11:29:35;;;;;;;0.10;0.10;;;20.90;99.90;;;;;;5006793;28;20198;-80
2023/08/03 11:32:01;;;;;;;0.10;0.10;;;20.90;99.90;;;;;;5005980;28;20708;-81
2023/08/03 11:34:27;;;;;;;0.10;0.10;;;20.90;99.90;;;;;;5002964;28;20293;-81
2023/08/03 11:36:52;;;;;;;0.10;0.10;;;21.40;99.90;;;;;;5002459;28;20203;-81
2023/08/03 11:39:19;;;;;;;0.10;0.10;;;21.60;99.90;;;;;;5005944;28;20210;-80
2023/08/03 11:41:47;;;;;;;0.10;0.10;;;21.80;99.90;;;;;;5024539;28;20900;-81
2023/08/03 11:44:13;;;;;;;0.10;0.10;;;21.80;99.90;;;;;;5006678;28;21294;-81
2023/08/03 11:46:39;;;;;;;0.10;0.10;;;21.70;99.90;;;;;;5021276;28;20187;-80
2023/08/03 11:49:04;;;;;;;0.10;0.10;;;21.70;99.90;;;;;;5004720;28;20202;-81
2023/08/03 11:51:37;;;;;;;0.10;0.10;;;22.10;99.90;;;;;;5006075;28;20252;-81
2023/08/03 11:54:07;;;;;;;0.10;0.10;;;22.10;99.90;;;;;;5004313;28;20257;-82
2023/08/03 11:56:35;;;;;;;0.10;0.10;;;22.00;99.90;;;;;;5006260;28;20252;-81
2023/08/03 11:59:04;;;;;;;0.10;0.10;;;22.10;99.90;;;;;;5020609;28;20241;-80
2023/08/03 12:01:30;;;;;;;0.10;0.10;;;22.00;99.90;;;;;;5004883;28;20727;-80
2023/08/03 12:04:07;;;;;;;0.10;0.10;;;21.80;99.90;;;;;;5021064;28;20209;-80
2023/08/03 12:06:47;;;;;;;0.10;0.10;;;21.60;99.90;;;;;;5003820;28;20213;-81
2023/08/03 12:09:20;;;;;;;0.10;0.10;;;21.60;99.90;;;;;;5019159;28;20186;-80
2023/08/03 12:11:45;;;;;;;0.10;0.10;;;21.80;99.90;;;;;;5005004;28;20649;-81
2023/08/03 12:14:11;;;;;;;0.10;0.10;;;21.90;99.90;;;;;;5003764;28;20210;-81
2023/08/03 12:16:38;;;;;;;0.10;0.10;;;22.00;99.90;;;;;;5018777;28;20211;-81
2023/08/03 12:19:07;;;;;;;0.10;0.10;;;22.20;99.90;;;;;;5004171;28;20183;-81
2023/08/03 12:21:42;;;;;;;0.10;0.10;;;22.20;99.90;;;;;;5004622;28;20223;-81
2023/08/03 12:24:08;;;;;;;0.10;0.10;;;22.00;99.90;;;;;;5005438;28;20707;-81
2023/08/03 12:26:34;;;;;;;0.10;0.10;;;21.90;99.90;;;;;;5005649;28;20185;-81
2023/08/03 12:29:01;;;;;;;0.10;0.10;;;21.70;99.90;;;;;;5005984;28;20257;-81
2023/08/03 12:31:28;;;;;;;0.10;0.10;;;21.70;99.90;;;;;;5003861;28;20282;-80
2023/08/03 12:33:53;;;;;;;0.10;0.10;;;21.50;99.90;;;;;;5003317;28;20203;-81
2023/08/03 12:36:19;;;;;;;0.10;0.10;;;21.40;99.90;;;;;;5005168;28;20609;-81
2023/08/03 12:38:44;;;;;;;0.10;0.10;;;21.50;99.90;;;;;;5020250;28;20183;-81
2023/08/03 12:41:10;;;;;;;0.10;0.10;;;21.40;99.90;;;;;;5005335;28;20187;-81
2023/08/03 12:43:36;;;;;;;0.10;0.10;;;21.30;99.90;;;;;;5005486;28;20194;-81
2023/08/03 12:46:01;;;;;;;0.10;0.10;;;21.40;99.90;;;;;;5020038;28;20191;-80
2023/08/03 12:48:27;;;;;;;0.10;0.10;;;21.20;99.90;;;;;;5004866;28;20553;-81